createdAt,value
2023-02-02T05:55:03.946Z,89.31
2023-02-02T05:57:30.844Z,89.12
2023-02-02T05:59:57.455Z,88.99
2023-02-02T06:02:24.237Z,89.15
2023-02-02T06:04:50.888Z,89.01
2023-02-02T06:07:17.597Z,88.58
2023-02-02T06:09:44.458Z,88.63
2023-02-02T06:12:11.690Z,88.79
2023-02-02T06:14:38.420Z,88.74
2023-02-02T06:17:06.197Z,88.54
2023-02-02T06:19:33.003Z,88.40
2023-02-02T06:21:59.893Z,88.74
2023-02-02T06:24:29.267Z,89.00
2023-02-02T06:26:56.655Z,88.65
2023-02-02T06:29:30.967Z,88.75
2023-02-02T06:31:58.987Z,88.20
2023-02-02T06:34:40.470Z,87.70
2023-02-02T06:37:11.103Z,87.91
2023-02-02T06:39:39.434Z,87.96
2023-02-02T06:42:20.811Z,87.78
2023-02-02T06:45:00.575Z,87.47
2023-02-02T06:47:28.194Z,86.73
2023-02-02T06:49:56.330Z,86.42
2023-02-02T06:52:26.119Z,85.65
2023-02-02T06:54:55.332Z,85.60
2023-02-02T06:57:23.792Z,84.97
2023-02-02T06:59:54.745Z,84.72
2023-02-02T07:02:24.306Z,84.75
2023-02-02T07:04:51.935Z,84.45
2023-02-02T07:07:18.815Z,84.07
2023-02-02T07:09:45.561Z,84.02
2023-02-02T07:12:12.658Z,83.53
2023-02-02T07:16:36.088Z,83.23
2023-02-02T07:19:05.515Z,83.03
2023-02-02T07:21:36.496Z,83.22
2023-02-02T07:24:06.824Z,82.94
2023-02-02T07:26:36.133Z,82.92
2023-02-02T07:29:05.060Z,82.80
2023-02-02T07:31:38.607Z,82.46
2023-02-02T07:34:07.212Z,82.11
2023-02-02T07:36:35.609Z,81.86
2023-02-02T07:39:05.692Z,81.84
2023-02-02T07:41:36.818Z,81.55
2023-02-02T07:44:07.426Z,81.37
2023-02-02T07:46:35.955Z,81.26
2023-02-02T07:49:07.347Z,80.82
2023-02-02T07:51:40.911Z,80.60
2023-02-02T07:54:10.862Z,80.52
2023-02-02T07:56:40.051Z,80.12
2023-02-02T07:59:10.968Z,79.69
2023-02-02T08:01:39.892Z,79.63
2023-02-02T08:04:08.636Z,79.24
2023-02-02T08:06:42.264Z,78.85
2023-02-02T08:09:16.755Z,78.75
2023-02-02T08:11:52.751Z,78.13
2023-02-02T08:14:24.161Z,77.54
2023-02-02T08:16:52.687Z,77.21
2023-02-02T08:19:23.072Z,75.74
2023-02-02T08:21:53.523Z,76.24
2023-02-02T08:24:22.914Z,76.46
2023-02-02T08:26:54.909Z,76.46
2023-02-02T08:29:24.887Z,76.12
2023-02-02T08:31:55.901Z,75.53
2023-02-02T08:34:37.798Z,75.46
2023-02-02T08:37:12.736Z,75.07
2023-02-02T08:39:42.808Z,74.77
2023-02-02T08:42:11.319Z,74.57
2023-02-02T08:46:07.791Z,74.38
2023-02-02T08:47:39.086Z,74.19
2023-02-02T08:50:19.840Z,73.63
2023-02-02T08:52:55.650Z,73.20
2023-02-02T08:55:32.220Z,73.16
2023-02-02T08:58:11.443Z,72.56
2023-02-02T09:00:41.432Z,72.78
2023-02-02T09:03:12.128Z,72.80
2023-02-02T09:06:12.028Z,72.80
2023-02-02T13:34:17.456Z,72.29
2023-02-02T13:36:57.866Z,72.57
2023-02-02T13:40:01.538Z,72.83
2023-02-02T13:42:45.970Z,72.89
2023-02-02T13:45:34.466Z,73.20
2023-02-02T13:48:32.483Z,73.48
2023-02-02T13:51:39.205Z,73.70
2023-02-02T13:54:24.775Z,73.77
2023-02-02T13:57:29.618Z,73.90
2023-02-02T14:00:04.273Z,74.22
2023-02-02T14:02:44.038Z,73.96
2023-02-02T14:05:22.486Z,74.26
2023-02-02T14:08:06.532Z,74.44
2023-02-02T14:10:39.682Z,74.51
2023-02-02T14:13:40.550Z,74.64
2023-02-02T14:16:18.706Z,74.46
2023-02-02T14:18:49.932Z,74.43
2023-02-02T14:21:35.170Z,74.97
2023-02-02T14:27:13.628Z,75.16
2023-02-02T14:29:46.187Z,75.25
2023-02-02T14:32:29.087Z,75.20
2023-02-02T14:35:00.557Z,75.34
2023-02-02T14:37:40.643Z,75.41
2023-02-02T14:40:10.357Z,75.78
2023-02-02T14:43:24.297Z,76.14
2023-02-02T14:46:14.292Z,76.26
2023-02-02T14:48:48.088Z,76.23
2023-02-02T14:51:24.755Z,76.40
2023-02-02T14:53:53.855Z,76.66
2023-02-02T14:56:55.454Z,76.98
2023-02-02T14:59:37.098Z,77.55
2023-02-02T15:02:25.347Z,77.53
2023-02-02T15:04:53.571Z,78.45
2023-02-02T15:07:24.566Z,79.37
2023-02-02T15:09:57.550Z,79.63
2023-02-02T15:12:29.260Z,80.19
2023-02-02T15:15:36.510Z,80.40
2023-02-02T15:18:15.354Z,81.43
2023-02-02T15:20:49.021Z,81.80
2023-02-02T15:23:34.787Z,82.19
2023-02-02T15:26:16.580Z,82.91
2023-02-02T15:29:07.548Z,83.08
2023-02-02T15:31:51.400Z,83.46
2023-02-02T15:34:40.311Z,83.98
2023-02-02T15:37:16.108Z,84.35
2023-02-02T15:39:45.530Z,84.65
2023-02-02T15:42:52.421Z,84.73
2023-02-02T15:45:49.568Z,84.60
2023-02-02T15:48:24.856Z,85.34
2023-02-02T15:50:56.691Z,85.65
2023-02-02T15:53:34.516Z,86.01
2023-02-02T15:56:06.737Z,86.50
2023-02-02T15:58:33.914Z,86.97
2023-02-02T16:01:04.999Z,86.65
2023-02-02T16:03:38.109Z,86.38
2023-02-02T16:06:07.727Z,86.60
2023-02-02T16:08:35.990Z,86.65
2023-02-02T16:11:03.685Z,86.71
2023-02-02T16:13:31.433Z,86.79
2023-02-02T16:16:03.262Z,86.96
2023-02-02T16:18:34.865Z,87.18
2023-02-02T16:21:06.304Z,87.62
2023-02-02T16:23:36.304Z,87.88
2023-02-02T16:26:06.064Z,88.21
2023-02-02T16:28:32.954Z,88.54
2023-02-02T16:31:02.353Z,88.97
2023-02-02T16:33:38.723Z,89.02
2023-02-02T16:36:26.561Z,89.32
2023-02-02T16:38:57.107Z,89.58
2023-02-02T16:41:32.991Z,89.30
2023-02-02T16:44:32.465Z,89.65
2023-02-02T16:47:01.157Z,90.05
2023-02-02T16:49:29.588Z,90.19
2023-02-02T16:52:18.281Z,90.04
2023-02-02T16:54:53.225Z,90.09
2023-02-02T16:57:26.196Z,90.33
2023-02-02T16:59:54.582Z,90.39
2023-02-02T17:02:39.910Z,90.65
2023-02-02T17:05:15.370Z,90.74
2023-02-02T17:07:46.431Z,90.76
2023-02-02T17:10:17.553Z,91.07
2023-02-02T17:12:45.301Z,91.19
2023-02-02T17:15:17.936Z,91.50
2023-02-02T17:17:47.728Z,91.43
2023-02-02T17:20:17.823Z,91.50
2023-02-02T17:22:55.974Z,91.21
2023-02-02T17:25:27.976Z,91.06
2023-02-02T17:27:56.036Z,90.47
2023-02-02T17:30:23.879Z,90.51
2023-02-02T17:32:50.885Z,90.78
2023-02-02T17:35:23.294Z,90.71
2023-02-02T17:37:52.125Z,90.59
2023-02-02T17:40:20.426Z,90.70
2023-02-02T17:42:48.937Z,90.26
2023-02-02T17:45:24.521Z,90.05
2023-02-02T17:47:54.856Z,90.08
2023-02-02T17:50:21.906Z,89.53
2023-02-02T17:52:49.227Z,89.78
2023-02-02T17:55:29.873Z,89.66
2023-02-02T17:57:56.712Z,89.50
2023-02-02T18:00:24.723Z,89.11
2023-02-02T18:02:55.263Z,89.09
2023-02-02T18:05:23.640Z,88.53
2023-02-02T18:07:51.028Z,88.85
2023-02-02T18:10:24.221Z,88.59
2023-02-02T18:12:51.841Z,89.09
2023-02-02T18:15:18.897Z,88.87
2023-02-02T18:17:45.834Z,88.89
